Time;durP1;ratioP1;P1;durP2;ratioP2;P2;SDS_P1;SDS_P2;PMS_P1;PMS_P2;Temp;Humidity;BMP_temperature;BMP_pressure;BME280_temperature;BME280_humidity;BME280_pressure;Samples;Min_cycle;Max_cycle;Signal;HPM_P1;HPM_P2
2023/11/29 00:00:47;;;;;;;17.73;8.43;;;;;;;-145.69;62.09;52404.78;5073807;28;20658;-79
2023/11/29 00:03:13;;;;;;;16.47;7.93;;;;;;;-145.69;61.84;52466.16;5074291;28;20636;-79
2023/11/29 00:05:40;;;;;;;19.83;8.63;;;;;;;-145.69;61.66;52432.50;5074348;28;20649;-79
2023/11/29 00:08:14;;;;;;;18.03;8.60;;;;;;;-145.69;62.94;52456.28;5074417;28;20246;-79
2023/11/29 00:10:42;;;;;;;20.30;9.07;;;;;;;-145.69;62.95;52438.44;5074667;28;20201;-79
2023/11/29 00:13:09;;;;;;;20.23;8.47;;;;;;;-145.69;63.53;52402.78;5065306;28;20211;-79
2023/11/29 00:15:37;;;;;;;19.40;7.87;;;;;;;-145.69;62.74;52424.59;5064006;28;20206;-79
2023/11/29 00:18:03;;;;;;;20.73;9.13;;;;;;;-145.69;62.72;52412.69;5073709;28;20203;-79
2023/11/29 00:20:30;;;;;;;18.83;8.63;;;;;;;-145.69;62.73;52416.66;5074451;28;20203;-79
2023/11/29 00:22:56;;;;;;;22.80;8.77;;;;;;;-145.69;61.70;52416.66;5074268;28;20207;-79
2023/11/29 00:25:23;;;;;;;22.40;9.40;;;;;;;-145.69;61.71;52424.59;5074278;28;20198;-79
2023/11/29 00:27:50;;;;;;;19.97;9.47;;;;;;;-145.69;61.51;52460.22;5074205;28;20321;-79
2023/11/29 00:30:16;;;;;;;19.90;9.07;;;;;;;-145.69;61.09;52414.69;5074325;28;20206;-79
2023/11/29 00:32:44;;;;;;;21.90;8.70;;;;;;;-145.69;60.66;52440.44;5073923;28;20198;-79
2023/11/29 00:35:11;;;;;;;19.23;9.17;;;;;;;-145.69;61.57;52410.72;5073992;28;20199;-79
2023/11/29 00:37:37;;;;;;;18.88;9.38;;;;;;;-145.69;62.33;52428.53;5073768;28;20547;-80
2023/11/29 00:40:04;;;;;;;18.80;8.97;;;;;;;-145.69;62.42;52418.63;5073955;28;20205;-79
2023/11/29 00:42:31;;;;;;;17.33;8.30;;;;;;;-145.69;62.20;52430.53;5073830;28;20201;-79
2023/11/29 00:44:57;;;;;;;15.67;7.87;;;;;;;-145.69;62.09;52422.59;5073941;28;20220;-79
2023/11/29 00:47:24;;;;;;;16.47;7.63;;;;;;;-145.69;62.31;52414.69;5073893;28;20229;-79
2023/11/29 00:49:51;;;;;;;18.67;7.40;;;;;;;-145.69;61.49;52434.47;5074049;28;20206;-79
2023/11/29 00:52:18;;;;;;;17.53;8.67;;;;;;;-145.69;62.85;52434.47;5073663;28;20210;-79
2023/11/29 00:54:44;;;;;;;20.07;9.00;;;;;;;-145.69;62.46;52414.69;5073740;28;20230;-79
2023/11/29 00:57:11;;;;;;;23.67;9.60;;;;;;;-145.69;61.59;52420.63;5073443;28;20203;-79
2023/11/29 00:59:38;;;;;;;24.27;9.37;;;;;;;-145.69;61.81;52428.53;5073647;28;20207;-79
2023/11/29 01:02:04;;;;;;;25.33;9.60;;;;;;;-145.69;62.09;52464.19;5073822;28;20210;-79
2023/11/29 01:04:31;;;;;;;21.93;9.03;;;;;;;-145.69;61.76;52458.25;5073180;28;20213;-79
2023/11/29 01:06:59;;;;;;;23.07;8.97;;;;;;;-145.69;61.99;52388.94;5073342;28;20229;-79
2023/11/29 01:09:25;;;;;;;21.63;8.90;;;;;;;-145.69;61.66;52432.50;5073219;28;20237;-79
2023/11/29 01:11:52;;;;;;;19.23;8.90;;;;;;;-145.69;61.64;52416.66;5072938;28;20226;-79
2023/11/29 01:14:18;;;;;;;18.83;8.67;;;;;;;-145.69;61.01;52440.44;5073157;28;20199;-79
2023/11/29 01:16:45;;;;;;;19.10;8.23;;;;;;;-145.69;62.84;52426.56;5057339;28;20195;-79
2023/11/29 01:19:11;;;;;;;20.77;9.13;;;;;;;-145.69;61.44;52404.78;5053307;28;20195;-80
2023/11/29 01:21:38;;;;;;;19.63;8.40;;;;;;;-145.69;61.35;52410.72;5053322;28;20218;-79
2023/11/29 01:24:07;;;;;;;20.73;9.03;;;;;;;-145.69;61.55;52448.34;5053290;28;20528;-79
2023/11/29 01:26:33;;;;;;;20.77;8.50;;;;;;;-145.69;61.05;52404.78;5053045;28;20219;-79
2023/11/29 01:29:00;;;;;;;20.80;8.37;;;;;;;-145.69;61.60;52436.47;5053153;28;20677;-79
2023/11/29 01:31:27;;;;;;;18.07;8.63;;;;;;;-145.69;61.14;52388.94;5053198;28;20265;-80
2023/11/29 01:33:53;;;;;;;17.17;8.07;;;;;;;-145.69;61.29;52458.25;5062504;28;20201;-79
2023/11/29 01:36:20;;;;;;;20.83;8.47;;;;;;;-145.69;62.01;52408.75;5072892;28;20195;-80
2023/11/29 01:38:47;;;;;;;16.40;7.90;;;;;;;-145.69;61.31;52446.38;5072989;28;20202;-79
2023/11/29 01:41:15;;;;;;;17.70;8.10;;;;;;;-145.69;61.21;52440.44;5072871;28;20203;-79
2023/11/29 01:43:41;;;;;;;23.60;9.20;;;;;;;-145.69;61.62;52414.69;5073065;28;20215;-79
2023/11/29 01:46:08;;;;;;;21.77;9.07;;;;;;;-145.69;62.46;52424.59;5072897;28;20206;-79
2023/11/29 01:48:34;;;;;;;23.33;8.67;;;;;;;-145.69;61.81;52472.13;5072707;28;20280;-79
2023/11/29 01:51:01;;;;;;;18.57;7.63;;;;;;;-145.69;62.07;52460.22;5072783;28;20645;-80
2023/11/29 01:53:31;;;;;;;19.27;8.57;;;;;;;-145.69;61.20;52432.50;5072724;28;20657;-80
2023/11/29 01:55:58;;;;;;;23.50;9.17;;;;;;;-145.69;61.15;52424.59;5073029;28;20577;-80
2023/11/29 01:58:28;;;;;;;17.07;6.73;;;;;;;-145.69;61.11;52434.47;5072942;28;20595;-80
2023/11/29 02:00:56;;;;;;;18.37;7.40;;;;;;;-145.69;61.29;52426.56;5072911;28;20206;-80
2023/11/29 02:03:22;;;;;;;19.73;8.13;;;;;;;-145.69;61.26;52412.69;5072519;28;20202;-80
2023/11/29 02:05:49;;;;;;;18.93;8.40;;;;;;;-145.69;61.96;52404.78;5069983;28;20688;-80
2023/11/29 02:08:16;;;;;;;17.63;7.90;;;;;;;-145.69;61.73;52452.31;5052506;28;20250;-80
2023/11/29 02:10:42;;;;;;;18.93;8.00;;;;;;;-145.69;62.03;52454.28;5052578;28;20286;-80
2023/11/29 02:13:09;;;;;;;17.03;7.37;;;;;;;-145.69;61.76;52424.59;5054676;28;20218;-80
2023/11/29 02:15:37;;;;;;;16.00;7.43;;;;;;;-145.69;62.55;52424.59;5072655;28;20199;-80
2023/11/29 02:18:03;;;;;;;22.77;10.50;;;;;;;-145.69;62.36;52434.47;5071372;28;21018;-80
2023/11/29 02:20:30;;;;;;;21.27;8.50;;;;;;;-145.69;61.67;52440.44;5072118;28;20293;-79
2023/11/29 02:23:03;;;;;;;20.40;8.50;;;;;;;-145.69;61.29;52416.66;5072547;28;20194;-80
2023/11/29 02:25:31;;;;;;;21.47;7.90;;;;;;;-145.69;62.15;52432.50;5075135;28;20204;-80
2023/11/29 02:27:59;;;;;;;18.80;7.93;;;;;;;-145.69;61.38;52384.97;5076466;28;20226;-80
2023/11/29 02:30:26;;;;;;;19.63;8.10;;;;;;;-145.69;60.40;52442.41;5076417;28;20527;-80
2023/11/29 02:32:53;;;;;;;16.23;7.97;;;;;;;-145.69;61.43;52440.44;5076190;28;20692;-80
2023/11/29 02:35:19;;;;;;;14.77;6.77;;;;;;;-145.69;61.17;52440.44;5076331;28;20683;-80
2023/11/29 02:37:46;;;;;;;14.83;6.33;;;;;;;-145.69;60.49;52436.47;5076043;28;20198;-80
2023/11/29 02:40:12;;;;;;;14.77;6.93;;;;;;;-145.69;59.99;52432.50;5076387;28;20652;-80
2023/11/29 02:42:44;;;;;;;16.27;7.27;;;;;;;-145.69;60.12;52444.38;5076393;28;20210;-79
2023/11/29 02:45:12;;;;;;;15.97;8.03;;;;;;;-145.69;60.74;52424.59;5076279;28;20199;-80
2023/11/29 02:47:39;;;;;;;19.43;8.03;;;;;;;-145.69;60.57;52450.31;5075595;28;20281;-80
2023/11/29 02:50:10;;;;;;;16.77;7.43;;;;;;;-145.69;60.74;52460.22;5076146;28;20199;-79
2023/11/29 02:52:36;;;;;;;14.80;6.80;;;;;;;-145.69;60.05;52412.69;5076012;28;20221;-79
2023/11/29 02:55:03;;;;;;;17.70;7.27;;;;;;;-145.69;60.11;52392.91;5076070;28;20198;-81
2023/11/29 02:57:31;;;;;;;15.40;7.27;;;;;;;-145.69;61.82;52456.28;5075910;28;20739;-80
2023/11/29 03:00:02;;;;;;;20.20;8.07;;;;;;;-145.69;61.50;52440.44;5075824;28;20676;-80
2023/11/29 03:02:28;;;;;;;20.97;8.07;;;;;;;-145.69;60.90;52444.38;5076089;28;20207;-80
2023/11/29 03:04:55;;;;;;;20.47;7.43;;;;;;;-145.69;60.26;52448.34;5075584;28;20252;-80
2023/11/29 03:07:21;;;;;;;13.40;6.70;;;;;;;-145.69;59.94;52438.44;5075804;28;20310;-81
2023/11/29 03:09:50;;;;;;;16.33;7.50;;;;;;;-145.69;60.44;52460.22;5075466;28;20240;-80
2023/11/29 03:12:17;;;;;;;15.17;6.93;;;;;;;-145.69;60.57;52420.63;5075705;28;20286;-80
2023/11/29 03:14:43;;;;;;;15.00;6.63;;;;;;;-145.69;59.99;52468.16;5073950;28;20202;-80
2023/11/29 03:17:14;;;;;;;13.07;6.20;;;;;;;-145.69;59.97;52432.50;5056940;28;20199;-80
2023/11/29 03:19:43;;;;;;;11.77;6.57;;;;;;;-145.69;61.06;52432.50;5055132;28;20559;-80
2023/11/29 03:22:10;;;;;;;14.33;6.37;;;;;;;-145.69;61.24;52424.59;5055548;28;20204;-80
2023/11/29 03:24:36;;;;;;;17.67;6.83;;;;;;;-145.69;61.37;52464.19;5055484;28;20699;-81
2023/11/29 03:27:05;;;;;;;15.90;6.53;;;;;;;-145.69;60.44;52442.41;5055206;28;20209;-81
2023/11/29 03:29:31;;;;;;;17.97;7.27;;;;;;;-145.69;60.23;52404.78;5055246;28;20682;-81
2023/11/29 03:31:58;;;;;;;15.90;6.80;;;;;;;-145.69;59.38;52428.53;5055307;28;20203;-80
2023/11/29 03:34:26;;;;;;;18.50;7.63;;;;;;;-145.69;59.51;52440.44;5067825;28;20203;-81
2023/11/29 03:36:52;;;;;;;18.60;7.50;;;;;;;-145.69;59.68;52430.53;5075096;28;20238;-81
2023/11/29 03:39:19;;;;;;;15.53;7.07;;;;;;;-145.69;60.20;52424.59;5075202;28;20306;-81
2023/11/29 03:41:45;;;;;;;14.80;6.17;;;;;;;-145.69;59.53;52432.50;5074522;28;20203;-81
2023/11/29 03:44:12;;;;;;;15.50;6.70;;;;;;;-145.69;60.11;52414.69;5075386;28;20202;-80
2023/11/29 03:46:40;;;;;;;16.70;6.90;;;;;;;-145.69;60.30;52436.47;5075147;28;20229;-80
2023/11/29 03:49:11;;;;;;;15.73;7.33;;;;;;;-145.69;60.16;52440.44;5075092;28;20305;-80
2023/11/29 03:51:39;;;;;;;15.50;6.60;;;;;;;-145.69;60.61;52420.63;5074931;28;20199;-81
2023/11/29 03:54:05;;;;;;;15.27;6.67;;;;;;;-145.69;60.90;52424.59;5074934;28;20202;-80
2023/11/29 03:56:32;;;;;;;17.33;7.10;;;;;;;-145.69;61.88;52438.44;5074959;28;20231;-79
2023/11/29 03:58:58;;;;;;;15.03;6.47;;;;;;;-145.69;61.56;52480.03;5074865;28;20195;-80
2023/11/29 04:01:25;;;;;;;18.40;7.47;;;;;;;-145.69;62.39;52420.63;5074949;28;20550;-81
2023/11/29 04:03:51;;;;;;;17.33;6.90;;;;;;;-145.69;61.95;52424.59;5074530;28;20546;-80
2023/11/29 04:06:24;;;;;;;16.80;6.87;;;;;;;-145.69;61.59;52418.63;5074601;28;20725;-80
2023/11/29 04:08:53;;;;;;;10.97;5.40;;;;;;;-145.69;61.61;52396.84;5074211;28;20234;-80
2023/11/29 04:11:20;;;;;;;14.90;5.80;;;;;;;-145.69;61.82;52404.78;5073856;28;20234;-81
2023/11/29 04:13:46;;;;;;;18.07;7.17;;;;;;;-145.69;61.76;52428.53;5061814;28;20596;-81
2023/11/29 04:16:20;;;;;;;17.93;6.83;;;;;;;-145.69;61.67;52464.19;5074552;28;20207;-81
2023/11/29 04:18:46;;;;;;;11.97;5.60;;;;;;;-145.69;61.49;52426.56;5074505;28;20199;-81
2023/11/29 04:21:19;;;;;;;11.50;5.67;;;;;;;-145.69;61.87;52432.50;5074217;28;20199;-81
2023/11/29 04:23:45;;;;;;;12.10;5.63;;;;;;;-145.69;61.74;52432.50;5074290;28;20286;-81
2023/11/29 04:26:24;;;;;;;12.93;6.33;;;;;;;-145.69;61.91;52418.63;5074273;28;20202;-81
2023/11/29 04:28:50;;;;;;;11.80;5.47;;;;;;;-145.69;61.70;52434.47;5074069;28;20689;-81
2023/11/29 04:31:19;;;;;;;11.13;5.37;;;;;;;-145.69;61.49;52396.84;5074486;28;20233;-80
2023/11/29 04:33:49;;;;;;;11.00;5.07;;;;;;;-145.69;62.07;52392.91;5074087;28;20199;-81
2023/11/29 04:36:19;;;;;;;9.50;4.93;;;;;;;-145.69;61.81;52400.81;5074053;28;20231;-81
2023/11/29 04:38:46;;;;;;;10.50;5.63;;;;;;;-145.69;62.01;52430.53;5074141;28;20288;-81
2023/11/29 04:41:13;;;;;;;10.50;5.20;;;;;;;-145.69;62.06;52408.75;5073828;28;20203;-81
2023/11/29 04:43:41;;;;;;;9.40;5.37;;;;;;;-145.69;62.29;52408.75;5073872;28;20202;-81
2023/11/29 04:46:09;;;;;;;10.90;5.37;;;;;;;-145.69;62.81;52412.69;5074067;28;20618;-81
2023/11/29 04:48:36;;;;;;;12.30;4.83;;;;;;;-145.69;62.46;52420.63;5073349;28;20397;-81
2023/11/29 04:51:03;;;;;;;10.27;4.93;;;;;;;-145.69;62.69;52412.69;5073953;28;20199;-81
2023/11/29 04:53:29;;;;;;;10.23;4.87;;;;;;;-145.69;62.51;52456.28;5073609;28;20202;-81
2023/11/29 04:55:56;;;;;;;10.77;4.77;;;;;;;-145.69;62.63;52444.38;5073649;28;20202;-81
2023/11/29 04:58:23;;;;;;;9.20;4.30;;;;;;;-145.69;62.62;52390.91;5073619;28;20199;-81
2023/11/29 05:00:53;;;;;;;9.37;5.00;;;;;;;-145.69;62.51;52400.81;5073527;28;20207;-81
2023/11/29 05:03:20;;;;;;;8.57;4.67;;;;;;;-145.69;62.62;52452.31;5073744;28;20284;-82
2023/11/29 05:05:46;;;;;;;12.70;5.07;;;;;;;-145.69;62.47;52416.66;5073528;28;20215;-81
2023/11/29 05:08:14;;;;;;;6.47;3.90;;;;;;;-145.69;62.44;52428.53;5073463;28;20329;-81
2023/11/29 05:10:40;;;;;;;8.97;4.37;;;;;;;-145.69;62.49;52416.66;5073277;28;20214;-81
2023/11/29 05:13:07;;;;;;;9.37;4.50;;;;;;;-145.69;62.29;52436.47;5073214;28;20213;-81
2023/11/29 05:15:34;;;;;;;9.27;3.93;;;;;;;-145.69;62.34;52396.84;5073033;28;20203;-81
2023/11/29 05:18:02;;;;;;;9.33;4.73;;;;;;;-145.69;62.29;52416.66;5073382;28;20278;-81
2023/11/29 05:20:29;;;;;;;10.17;4.77;;;;;;;-145.69;62.29;52404.78;5071557;28;20205;-80
2023/11/29 05:22:55;;;;;;;9.87;5.17;;;;;;;-145.69;62.06;52404.78;5072877;28;20203;-81
2023/11/29 05:25:23;;;;;;;9.13;4.67;;;;;;;-145.69;62.24;52440.44;5054785;28;20195;-81
2023/11/29 05:27:50;;;;;;;9.10;4.50;;;;;;;-145.69;62.29;52420.63;5066184;28;20769;-81
2023/11/29 05:30:17;;;;;;;9.03;4.30;;;;;;;-145.69;62.33;52428.53;5073408;28;20226;-81
2023/11/29 05:32:44;;;;;;;9.23;4.00;;;;;;;-145.69;62.14;52408.75;5073251;28;20202;-81
2023/11/29 05:35:12;;;;;;;7.53;3.80;;;;;;;-145.69;62.26;52430.53;5073271;28;20297;-81
2023/11/29 05:37:38;;;;;;;7.73;3.93;;;;;;;-145.69;62.31;52414.69;5073048;28;20244;-81
2023/11/29 05:40:08;;;;;;;9.73;4.00;;;;;;;-145.69;62.39;52390.91;5073271;28;20550;-81
2023/11/29 05:42:34;;;;;;;8.03;4.10;;;;;;;-145.69;62.73;52416.66;5072917;28;20538;-81
2023/11/29 05:45:01;;;;;;;6.50;3.83;;;;;;;-145.69;62.67;52426.56;5072999;28;20665;-81
2023/11/29 05:47:29;;;;;;;7.23;4.00;;;;;;;-145.69;62.14;52396.84;5072948;28;20203;-82
2023/11/29 05:49:55;;;;;;;9.10;4.33;;;;;;;-145.69;62.23;52424.59;5072706;28;20681;-81
2023/11/29 05:52:23;;;;;;;6.63;3.77;;;;;;;-145.69;62.34;52383.00;5073040;28;20210;-81
2023/11/29 05:54:50;;;;;;;8.43;4.40;;;;;;;-145.69;62.54;52414.69;5058964;28;20210;-81
2023/11/29 05:57:16;;;;;;;8.70;4.10;;;;;;;-145.69;62.14;52408.75;5052800;28;20199;-81
2023/11/29 05:59:42;;;;;;;6.93;3.93;;;;;;;-145.69;61.96;52424.59;5052556;28;20210;-81
2023/11/29 06:02:09;;;;;;;7.53;3.43;;;;;;;-145.69;62.01;52384.97;5063084;28;20194;-81
2023/11/29 06:04:37;;;;;;;6.90;4.20;;;;;;;-145.69;62.00;52418.63;5072696;28;20199;-82
2023/11/29 06:07:04;;;;;;;6.07;3.77;;;;;;;-145.69;62.04;52410.72;5072698;28;20252;-81
2023/11/29 06:09:32;;;;;;;8.33;3.93;;;;;;;-145.69;61.78;52390.91;5071583;28;20328;-81
2023/11/29 06:11:58;;;;;;;7.63;4.53;;;;;;;-145.69;62.05;52434.47;5072679;28;20245;-81
2023/11/29 06:14:26;;;;;;;6.77;4.03;;;;;;;-145.69;61.96;52452.31;5072607;28;20203;-81
2023/11/29 06:16:53;;;;;;;7.97;3.80;;;;;;;-145.69;62.06;52430.53;5072827;28;20628;-81
2023/11/29 06:19:20;;;;;;;7.60;4.53;;;;;;;-145.69;61.97;52390.91;5072633;28;20203;-81
2023/11/29 06:21:46;;;;;;;5.90;3.87;;;;;;;-145.69;62.00;52440.44;5070877;28;20207;-81
2023/11/29 06:24:13;;;;;;;8.17;4.17;;;;;;;-145.69;62.31;52408.75;5067891;28;20198;-81
2023/11/29 06:26:41;;;;;;;6.17;3.40;;;;;;;-145.69;62.26;52394.88;5072282;28;20217;-81
2023/11/29 06:29:09;;;;;;;9.87;3.93;;;;;;;-145.69;62.31;52428.53;5072570;28;20222;-81
2023/11/29 06:31:36;;;;;;;7.63;3.77;;;;;;;-145.69;62.06;52392.91;5072543;28;20550;-82
2023/11/29 06:34:03;;;;;;;6.97;3.60;;;;;;;-145.69;62.17;52422.59;5072559;28;20202;-81
2023/11/29 06:36:30;;;;;;;6.77;4.07;;;;;;;-145.69;62.45;52373.09;5072519;28;20275;-82
2023/11/29 06:38:56;;;;;;;6.20;3.30;;;;;;;-145.69;62.17;52420.63;5072444;28;20653;-82
2023/11/29 06:41:23;;;;;;;9.07;3.77;;;;;;;-145.69;62.29;52422.59;5072604;28;20202;-81
2023/11/29 06:43:52;;;;;;;5.73;3.27;;;;;;;-145.69;62.73;52404.78;5071152;28;20198;-81
2023/11/29 06:46:18;;;;;;;5.17;3.40;;;;;;;-145.69;62.11;52406.75;5052325;28;20199;-82
2023/11/29 06:48:45;;;;;;;4.87;3.10;;;;;;;-145.69;62.18;52394.88;5052178;28;20254;-82
2023/11/29 06:51:12;;;;;;;5.47;3.33;;;;;;;-145.69;62.22;52400.81;5052163;28;20199;-82
2023/11/29 06:53:39;;;;;;;5.50;3.60;;;;;;;-145.69;61.89;52367.16;5052138;28;20206;-81
2023/11/29 06:56:06;;;;;;;5.43;3.20;;;;;;;-145.69;62.16;52388.94;5052257;28;20211;-82
2023/11/29 06:58:33;;;;;;;5.73;3.10;;;;;;;-145.69;62.57;52434.47;5052277;28;20237;-81
2023/11/29 07:01:01;;;;;;;4.97;3.30;;;;;;;-145.69;62.49;52416.66;5052273;28;20204;-81
2023/11/29 07:03:27;;;;;;;5.80;3.30;;;;;;;-145.69;62.08;52420.63;5062560;28;20246;-81
2023/11/29 07:05:56;;;;;;;6.20;3.33;;;;;;;-145.69;62.54;52408.75;5072150;28;20199;-81
2023/11/29 07:08:23;;;;;;;8.97;4.87;;;;;;;-145.69;62.53;52406.75;5071957;28;20230;-82
2023/11/29 07:10:49;;;;;;;7.00;4.17;;;;;;;-145.69;62.18;52388.94;5071811;28;20202;-81
2023/11/29 07:13:16;;;;;;;7.63;3.77;;;;;;;-145.69;60.94;52406.75;5073825;28;20558;-81
2023/11/29 07:15:42;;;;;;;8.37;4.27;;;;;;;-145.69;62.09;52396.84;5075891;28;20211;-82
2023/11/29 07:18:10;;;;;;;6.20;3.90;;;;;;;-145.69;62.14;52452.31;5075558;28;20206;-81
2023/11/29 07:20:40;;;;;;;5.77;3.77;;;;;;;-145.69;62.14;52400.81;5075444;28;20677;-81
2023/11/29 07:23:06;;;;;;;5.97;3.47;;;;;;;-145.69;61.87;52426.56;5075580;28;20198;-81
2023/11/29 07:25:33;;;;;;;6.17;3.67;;;;;;;-145.69;62.24;52388.94;5074483;28;20203;-81
2023/11/29 07:27:59;;;;;;;10.40;3.67;;;;;;;-145.69;61.35;52408.75;5058222;28;20206;-81
2023/11/29 07:30:26;;;;;;;6.40;3.73;;;;;;;-145.69;62.37;52464.19;5055402;28;20226;-81
2023/11/29 07:32:52;;;;;;;5.73;3.37;;;;;;;-145.69;62.02;52402.78;5056436;28;20202;-82
2023/11/29 07:35:20;;;;;;;4.57;3.10;;;;;;;-145.69;62.46;52408.75;5060829;28;20207;-81
2023/11/29 07:37:48;;;;;;;5.63;3.20;;;;;;;-145.69;62.31;52400.81;5078661;28;20198;-81
2023/11/29 07:40:15;;;;;;;5.73;3.17;;;;;;;-145.69;62.02;52398.84;5076697;28;20195;-81
2023/11/29 07:42:42;;;;;;;5.83;3.40;;;;;;;-145.69;62.15;52428.53;5075962;28;20290;-81
2023/11/29 07:45:09;;;;;;;5.23;2.83;;;;;;;-145.69;62.31;52388.94;5077057;28;20202;-81
2023/11/29 07:47:35;;;;;;;5.43;3.67;;;;;;;-145.69;61.98;52384.97;5076176;28;20726;-81
2023/11/29 07:50:02;;;;;;;4.00;2.90;;;;;;;-145.69;60.19;52416.66;5084361;28;20273;-82
2023/11/29 07:52:30;;;;;;;5.77;2.93;;;;;;;-145.69;61.15;52404.78;5090111;28;20210;-82
2023/11/29 07:54:58;;;;;;;4.20;2.60;;;;;;;-145.69;61.59;52408.75;5089289;28;20209;-81
2023/11/29 07:57:24;;;;;;;4.67;2.63;;;;;;;-145.69;61.56;52400.81;5088327;28;20210;-81
2023/11/29 07:59:51;;;;;;;4.23;2.63;;;;;;;-145.69;62.38;52434.47;5080428;28;20195;-81
2023/11/29 08:02:17;;;;;;;4.53;2.87;;;;;;;-145.69;61.06;52373.09;5079070;28;20209;-82
2023/11/29 08:04:44;;;;;;;8.30;2.70;;;;;;;-145.69;61.17;52406.75;5080665;28;20254;-82
2023/11/29 08:07:10;;;;;;;4.73;2.73;;;;;;;-145.69;60.96;52388.94;5083240;28;20623;-81
2023/11/29 08:09:38;;;;;;;3.40;2.60;;;;;;;-145.69;61.36;52392.91;5076248;28;20239;-82
2023/11/29 08:12:05;;;;;;;3.93;2.70;;;;;;;-145.69;61.77;52386.97;5075696;28;20213;-81
2023/11/29 08:14:32;;;;;;;4.30;2.60;;;;;;;-145.69;61.85;52381.00;5074802;28;20214;-81
2023/11/29 08:16:59;;;;;;;3.67;2.60;;;;;;;-145.69;62.17;52390.91;5076102;28;20554;-81
2023/11/29 08:19:25;;;;;;;4.40;2.67;;;;;;;-145.69;62.00;52365.16;5076015;28;20198;-81
2023/11/29 08:21:52;;;;;;;4.80;3.13;;;;;;;-145.69;62.03;52377.06;5075009;28;20206;-81
2023/11/29 08:24:18;;;;;;;4.00;2.67;;;;;;;-145.69;61.29;52388.94;5076079;28;20282;-81
2023/11/29 08:26:47;;;;;;;4.03;3.00;;;;;;;-145.69;61.82;52396.84;5078230;28;20202;-81
2023/11/29 08:29:13;;;;;;;3.33;2.57;;;;;;;-145.69;61.93;52361.22;5057476;28;20241;-81
2023/11/29 08:31:40;;;;;;;42.80;16.13;;;;;;;-145.69;59.94;52392.91;5056057;28;20210;-81
2023/11/29 08:34:06;;;;;;;56.90;24.83;;;;;;;-145.69;60.71;52388.94;5056331;28;20200;-81
2023/11/29 08:36:33;;;;;;;30.43;12.53;;;;;;;-145.69;60.19;52396.84;5055564;28;20219;-81
2023/11/29 08:38:59;;;;;;;14.03;6.93;;;;;;;-145.69;60.64;52373.09;5054257;28;20199;-80
2023/11/29 08:41:26;;;;;;;6.03;3.50;;;;;;;-145.69;60.24;52369.13;5054189;28;20195;-80
2023/11/29 08:43:54;;;;;;;3.87;2.53;;;;;;;-145.69;60.55;52416.66;5054282;28;20295;-80
2023/11/29 08:46:20;;;;;;;4.07;2.53;;;;;;;-145.69;59.25;52424.59;5054119;28;20212;-80
2023/11/29 08:48:46;;;;;;;5.07;2.67;;;;;;;-145.69;60.21;52381.00;5053658;28;20427;-81
2023/11/29 08:51:16;;;;;;;3.57;2.43;;;;;;;-145.69;59.46;52357.25;5054046;28;20218;-81
2023/11/29 08:53:43;;;;;;;3.63;2.53;;;;;;;-145.69;58.30;52386.97;5053805;28;20269;-81
2023/11/29 08:56:15;;;;;;;2.83;2.17;;;;;;;-145.69;55.73;52410.72;5054069;28;20207;-82
2023/11/29 08:58:41;;;;;;;3.10;2.00;;;;;;;-145.69;57.56;52371.13;5068955;28;20199;-80
2023/11/29 09:01:11;;;;;;;2.97;2.23;;;;;;;-145.69;55.71;52349.31;5065812;28;20214;-79
2023/11/29 09:03:38;;;;;;;3.50;2.50;;;;;;;-145.69;56.46;52440.44;5064958;28;20557;-81
2023/11/29 09:06:04;;;;;;;4.37;2.77;;;;;;;-145.69;56.28;52365.16;5073152;28;20657;-80
2023/11/29 09:08:31;;;;;;;3.63;2.20;;;;;;;-145.69;55.17;52396.84;5073380;28;20230;-80
2023/11/29 09:10:58;;;;;;;3.13;2.07;;;;;;;-145.69;55.36;52345.38;5073399;28;20221;-80
2023/11/29 09:13:24;;;;;;;3.07;2.10;;;;;;;-145.69;53.70;52369.13;5073296;28;20198;-80
2023/11/29 09:15:51;;;;;;;2.37;2.00;;;;;;;-145.69;56.44;52371.13;5073466;28;20199;-80
2023/11/29 09:18:19;;;;;;;2.93;2.20;;;;;;;-145.69;56.22;52379.03;5073361;28;20291;-81
2023/11/29 09:20:45;;;;;;;2.83;2.03;;;;;;;-145.69;57.38;52369.13;5073145;28;20631;-80
2023/11/29 09:23:12;;;;;;;3.47;1.90;;;;;;;-145.69;58.10;52384.97;5071611;28;20210;-81
2023/11/29 09:25:38;;;;;;;2.73;2.07;;;;;;;-145.69;56.75;52353.28;5073287;28;20559;-81
2023/11/29 09:28:06;;;;;;;5.27;2.77;;;;;;;-145.69;54.66;52402.78;5072374;28;20684;-81
2023/11/29 09:30:33;;;;;;;4.30;2.80;;;;;;;-145.69;57.80;52384.97;5073063;28;20733;-81
2023/11/29 09:32:59;;;;;;;5.17;2.73;;;;;;;-145.69;55.84;52388.94;5072976;28;20203;-81
2023/11/29 09:35:27;;;;;;;10.37;4.40;;;;;;;-145.69;55.64;52373.09;5073349;28;20268;-81
2023/11/29 09:37:54;;;;;;;6.43;3.93;;;;;;;-145.69;53.82;52353.28;5072980;28;20199;-82
2023/11/29 09:40:20;;;;;;;4.13;2.30;;;;;;;-145.69;52.40;52375.06;5073160;28;20206;-81
2023/11/29 09:42:47;;;;;;;2.80;2.10;;;;;;;-145.69;52.72;52384.97;5072991;28;20664;-81
2023/11/29 09:45:22;;;;;;;1.93;1.63;;;;;;;-145.69;52.84;52349.31;5073014;28;20205;-81
2023/11/29 09:47:48;;;;;;;1.90;1.73;;;;;;;-145.69;53.03;52381.00;5073064;28;20206;-81
2023/11/29 09:50:17;;;;;;;2.60;1.60;;;;;;;-145.69;51.48;52404.78;5072860;28;20550;-81
2023/11/29 09:52:45;;;;;;;3.03;1.80;;;;;;;-145.69;50.77;52406.75;5072839;28;20195;-81
2023/11/29 09:55:11;;;;;;;3.90;2.10;;;;;;;-145.69;48.41;52390.91;5073040;28;20656;-81
2023/11/29 09:57:38;;;;;;;2.73;2.07;;;;;;;-145.69;48.10;52384.97;5072138;28;20198;-80
2023/11/29 10:00:09;;;;;;;2.47;1.83;;;;;;;-145.69;46.99;52396.84;5072724;28;20203;-81
2023/11/29 10:02:36;;;;;;;2.50;1.90;;;;;;;-145.69;46.73;52402.78;5073042;28;20202;-81
2023/11/29 10:05:05;;;;;;;2.70;1.83;;;;;;;-145.69;45.94;52428.53;5072155;28;20198;-81
2023/11/29 10:07:32;;;;;;;3.47;2.43;;;;;;;-145.69;46.94;52384.97;5072677;28;20203;-81
2023/11/29 10:10:01;;;;;;;4.23;2.10;;;;;;;-145.69;47.49;52335.47;5072897;28;20313;-81
2023/11/29 10:12:28;;;;;;;2.70;1.73;;;;;;;-145.69;48.08;52365.16;5072855;28;20209;-81
2023/11/29 10:14:54;;;;;;;10.40;4.73;;;;;;;-145.69;48.49;52388.94;5072736;28;20293;-81
2023/11/29 10:17:21;;;;;;;11.30;4.40;;;;;;;-145.69;48.54;52384.97;5072900;28;20236;-80
2023/11/29 10:19:47;;;;;;;18.53;6.43;;;;;;;-145.69;48.77;52388.94;5072950;28;20195;-80
2023/11/29 10:22:15;;;;;;;7.13;3.47;;;;;;;-145.69;47.38;52390.91;5075164;28;20213;-80
2023/11/29 10:24:41;;;;;;;7.53;3.10;;;;;;;-145.69;46.64;52353.28;5072915;28;20658;-81
2023/11/29 10:27:10;;;;;;;11.00;4.67;;;;;;;-145.69;46.22;52337.44;5072723;28;20198;-81
2023/11/29 10:29:37;;;;;;;13.20;4.23;;;;;;;-145.69;46.45;52347.34;5071272;28;20218;-81
2023/11/29 10:32:05;;;;;;;5.47;2.70;;;;;;;-145.69;45.15;52377.06;5072476;28;20202;-81
2023/11/29 10:34:34;;;;;;;9.70;4.20;;;;;;;-145.69;45.61;52351.31;5062074;28;20203;-80
2023/11/29 10:37:01;;;;;;;6.47;3.00;;;;;;;-145.69;45.72;52353.28;5052632;28;20200;-80
2023/11/29 10:39:31;;;;;;;7.68;3.75;;;;;;;-145.69;45.59;52373.09;5051821;28;20497;-81
2023/11/29 10:41:59;;;;;;;3.10;2.07;;;;;;;-145.69;45.36;52375.06;5052626;28;20203;-81
2023/11/29 10:44:30;;;;;;;6.00;2.90;;;;;;;-145.69;44.65;52363.19;5052385;28;20663;-81
2023/11/29 10:47:03;;;;;;;3.23;2.13;;;;;;;-145.69;43.94;52341.41;5055728;28;20203;-81
2023/11/29 10:49:34;;;;;;;4.73;2.40;;;;;;;-145.69;43.84;52353.28;5056160;28;20219;-81
2023/11/29 10:52:01;;;;;;;3.20;2.20;;;;;;;-145.69;42.98;52351.31;5056120;28;20210;-81
2023/11/29 10:54:28;;;;;;;2.90;1.97;;;;;;;-145.69;43.21;52331.50;5056051;28;20199;-81
2023/11/29 10:56:55;;;;;;;3.50;2.17;;;;;;;-145.69;43.15;52317.66;5056123;28;20651;-81
2023/11/29 10:59:25;;;;;;;3.00;1.80;;;;;;;-145.69;42.29;52325.56;5071036;28;20203;-81
2023/11/29 11:01:56;;;;;;;9.73;4.10;;;;;;;-145.69;42.12;52335.47;5072113;28;20199;-81
2023/11/29 11:04:23;;;;;;;7.07;3.03;;;;;;;-145.69;41.64;52329.53;5077400;28;20203;-81
2023/11/29 11:06:50;;;;;;;4.50;2.73;;;;;;;-145.69;42.23;52349.31;5076639;28;20206;-81
2023/11/29 11:09:36;;;;;;;4.63;2.37;;;;;;;-145.69;42.30;52327.53;5071232;28;20582;-81
2023/11/29 11:12:04;;;;;;;2.73;1.80;;;;;;;-145.69;42.89;52327.53;5061723;28;20641;-81
2023/11/29 11:14:40;;;;;;;2.57;1.73;;;;;;;-145.69;42.44;52317.66;5075705;28;20543;-82